createdAt,value
2018-01-02T00:01:12.077Z,5.82
2018-01-02T00:03:39.485Z,5.83
2018-01-02T00:06:06.904Z,5.77
2018-01-02T00:08:34.309Z,5.80
2018-01-02T00:11:01.726Z,5.82
2018-01-02T00:13:29.142Z,5.81
2018-01-02T00:15:56.548Z,5.88
2018-01-02T00:18:23.954Z,5.89
2018-01-02T00:20:51.356Z,5.86
2018-01-02T00:23:18.777Z,5.95
2018-01-02T00:25:46.181Z,6.02
2018-01-02T00:28:13.588Z,6.08
2018-01-02T00:30:41.002Z,6.15
2018-01-02T00:33:08.414Z,6.17
2018-01-02T00:35:35.957Z,6.20
2018-01-02T00:38:03.352Z,6.21
2018-01-02T00:40:30.777Z,6.14
2018-01-02T00:42:58.181Z,6.17
2018-01-02T00:45:25.584Z,6.24
2018-01-02T00:47:52.992Z,6.32
2018-01-02T00:50:20.401Z,6.30
2018-01-02T00:52:47.814Z,6.35
2018-01-02T00:55:15.226Z,6.32
2018-01-02T00:57:42.649Z,6.36
2018-01-02T01:00:10.053Z,6.31
2018-01-02T01:02:37.468Z,6.33
2018-01-02T01:05:04.881Z,6.32
2018-01-02T01:07:32.289Z,6.24
2018-01-02T01:09:59.705Z,6.29
2018-01-02T01:12:27.125Z,6.36
2018-01-02T01:14:54.543Z,6.30
2018-01-02T01:17:21.951Z,6.33
2018-01-02T01:19:49.353Z,6.41
2018-01-02T01:22:16.762Z,6.41
2018-01-02T01:24:44.177Z,6.39
2018-01-02T01:27:11.588Z,6.49
2018-01-02T01:29:38.994Z,6.54
2018-01-02T01:32:06.416Z,6.47
2018-01-02T01:34:33.841Z,6.51
2018-01-02T01:37:01.244Z,6.49
2018-01-02T01:39:28.664Z,6.47
2018-01-02T01:41:56.074Z,6.55
2018-01-02T01:44:23.482Z,6.55
2018-01-02T01:46:50.882Z,6.49
2018-01-02T01:49:18.302Z,6.51
2018-01-02T01:51:45.705Z,6.47
2018-01-02T01:54:13.134Z,6.55
2018-01-02T01:56:40.536Z,6.59
2018-01-02T01:59:07.948Z,6.68
2018-01-02T02:01:35.355Z,6.59
2018-01-02T02:04:02.785Z,6.64
2018-01-02T02:06:30.201Z,6.69
2018-01-02T02:08:57.604Z,6.60
2018-01-02T02:11:25.028Z,6.61
2018-01-02T02:13:52.443Z,6.59
2018-01-02T02:16:19.840Z,6.61
2018-01-02T02:18:47.252Z,6.57
2018-01-02T02:21:14.758Z,6.59
2018-01-02T02:23:42.164Z,6.67
2018-01-02T02:26:09.569Z,6.66
2018-01-02T02:28:36.984Z,6.69
2018-01-02T02:31:04.397Z,6.69
2018-01-02T02:33:31.806Z,6.62
2018-01-02T02:35:59.208Z,6.47
2018-01-02T02:38:26.630Z,6.62
2018-01-02T02:41:05.830Z,6.71
2018-01-02T02:43:33.247Z,6.72
2018-01-02T02:46:00.685Z,6.76
2018-01-02T02:48:28.084Z,6.82
2018-01-02T02:50:55.511Z,6.82
2018-01-02T02:53:22.920Z,6.79
2018-01-02T02:55:50.336Z,6.74
2018-01-02T02:58:17.744Z,6.78
2018-01-02T03:00:45.149Z,6.73
2018-01-02T03:03:12.570Z,6.77
2018-01-02T03:05:39.969Z,6.72
2018-01-02T03:08:07.413Z,6.65
2018-01-02T03:10:34.828Z,6.72
2018-01-02T03:13:02.229Z,6.74
2018-01-02T03:15:29.644Z,6.67
2018-01-02T03:17:57.060Z,6.59
2018-01-02T03:20:24.478Z,6.53
2018-01-02T03:22:51.885Z,6.47
2018-01-02T03:25:19.296Z,6.45
2018-01-02T03:27:46.702Z,6.46
2018-01-02T03:30:14.105Z,6.43
2018-01-02T03:32:41.518Z,6.42
2018-01-02T03:35:08.930Z,6.44
2018-01-02T03:37:36.361Z,6.43
2018-01-02T03:40:03.774Z,6.52
2018-01-02T03:42:31.450Z,6.51
2018-01-02T03:44:58.855Z,6.48
2018-01-02T03:47:26.261Z,6.59
2018-01-02T03:49:53.675Z,6.63
2018-01-02T03:52:21.076Z,6.64
2018-01-02T03:54:48.496Z,6.49
2018-01-02T03:57:15.919Z,6.54
2018-01-02T03:59:43.321Z,6.44
2018-01-02T04:02:10.749Z,6.43
2018-01-02T04:04:38.348Z,6.21
2018-01-02T04:07:05.762Z,6.20
2018-01-02T04:09:33.173Z,6.26
2018-01-02T04:12:00.588Z,6.20
2018-01-02T04:14:27.996Z,6.23
2018-01-02T04:16:55.400Z,6.23
2018-01-02T04:19:22.809Z,6.24
2018-01-02T04:21:50.220Z,6.24
2018-01-02T04:24:17.630Z,6.28
2018-01-02T04:26:45.029Z,6.38
2018-01-02T04:29:12.444Z,6.42
2018-01-02T04:31:39.852Z,6.41
2018-01-02T04:34:07.252Z,6.43
2018-01-02T04:36:34.668Z,6.39
2018-01-02T04:39:02.073Z,6.41
2018-01-02T04:41:29.494Z,6.42
2018-01-02T04:43:56.897Z,6.41
2018-01-02T04:46:24.305Z,6.43
2018-01-02T04:48:51.713Z,6.39
2018-01-02T04:51:19.118Z,6.43
2018-01-02T04:53:46.548Z,6.49
2018-01-02T04:56:13.954Z,6.53
2018-01-02T04:58:41.363Z,6.52
2018-01-02T05:01:08.769Z,6.54
2018-01-02T05:03:36.185Z,6.52
2018-01-02T05:06:03.602Z,6.58
2018-01-02T05:08:31.001Z,6.60
2018-01-02T05:10:58.408Z,6.59
2018-01-02T05:13:25.832Z,6.65
2018-01-02T05:15:53.241Z,6.68
2018-01-02T05:18:20.680Z,6.72
2018-01-02T05:20:48.088Z,6.72
2018-01-02T05:23:15.536Z,6.69
2018-01-02T05:25:42.937Z,6.75
2018-01-02T05:28:10.345Z,6.76
2018-01-02T05:30:37.773Z,6.80
2018-01-02T05:33:05.171Z,6.80
2018-01-02T05:35:32.577Z,6.78
2018-01-02T05:38:00.010Z,6.81
2018-01-02T05:40:27.453Z,6.78
2018-01-02T05:42:54.880Z,6.77
2018-01-02T05:45:22.281Z,6.79
2018-01-02T05:47:49.688Z,6.79
2018-01-02T05:50:17.092Z,6.80
2018-01-02T05:52:44.501Z,6.75
2018-01-02T05:55:11.920Z,6.77
2018-01-02T05:57:39.323Z,6.79
2018-01-02T06:00:06.729Z,6.79
2018-01-02T06:02:34.136Z,6.88
2018-01-02T06:05:01.537Z,6.89
2018-01-02T06:07:28.961Z,6.88
2018-01-02T06:09:56.377Z,6.90
2018-01-02T06:12:23.781Z,6.94
2018-01-02T06:14:52.153Z,6.85
2018-01-02T06:17:19.565Z,6.85
2018-01-02T06:19:46.985Z,6.81
2018-01-02T06:22:14.388Z,6.89
2018-01-02T06:24:41.795Z,6.91
2018-01-02T06:27:09.208Z,6.96
2018-01-02T06:29:36.624Z,7.01
2018-01-02T06:32:04.053Z,7.06
2018-01-02T06:34:31.465Z,7.08
2018-01-02T06:36:58.878Z,7.12
2018-01-02T06:39:26.285Z,7.10
2018-01-02T06:41:53.690Z,7.02
2018-01-02T06:44:21.129Z,7.07
2018-01-02T06:46:48.537Z,7.05
2018-01-02T06:49:15.946Z,7.12
2018-01-02T06:51:43.357Z,7.04
2018-01-02T06:54:10.762Z,7.02
2018-01-02T06:56:38.182Z,6.95
2018-01-02T06:59:05.591Z,6.95
2018-01-02T07:01:33.002Z,6.96
2018-01-02T07:04:00.413Z,6.83
2018-01-02T07:06:27.812Z,6.87
2018-01-02T07:08:55.253Z,6.87
2018-01-02T07:11:22.657Z,6.88
2018-01-02T07:13:50.074Z,6.79
2018-01-02T07:16:17.474Z,6.76
2018-01-02T07:18:44.886Z,6.80
2018-01-02T07:21:12.293Z,6.83
2018-01-02T07:23:39.692Z,6.82
2018-01-02T07:26:07.120Z,6.91
2018-01-02T07:28:34.520Z,6.91
2018-01-02T07:31:01.930Z,7.02
2018-01-02T07:33:29.337Z,7.08
2018-01-02T07:35:56.745Z,7.08
2018-01-02T07:38:24.160Z,7.14
2018-01-02T07:40:51.627Z,6.95
2018-01-02T07:43:19.052Z,7.00
2018-01-02T07:45:46.444Z,7.04
2018-01-02T07:48:13.841Z,7.02
2018-01-02T07:50:41.258Z,7.10
2018-01-02T07:53:08.661Z,7.06
2018-01-02T07:55:36.075Z,7.00
2018-01-02T07:58:03.473Z,6.95
2018-01-02T08:00:30.904Z,6.97
2018-01-02T08:02:58.308Z,6.94
2018-01-02T08:05:25.717Z,6.92
2018-01-02T08:07:53.133Z,6.95
2018-01-02T08:10:20.553Z,6.83
2018-01-02T08:12:47.950Z,6.87
2018-01-02T08:15:15.366Z,6.92
2018-01-02T08:17:42.781Z,6.86
2018-01-02T08:20:10.180Z,6.87
2018-01-02T08:22:37.581Z,6.77
2018-01-02T08:25:05.051Z,6.81
2018-01-02T08:27:32.401Z,6.84
2018-01-02T08:29:59.825Z,6.77
2018-01-02T08:32:27.233Z,6.86
2018-01-02T08:34:54.648Z,6.86
2018-01-02T08:37:22.069Z,6.85
2018-01-02T08:39:49.481Z,6.77
2018-01-02T08:42:16.905Z,6.82
2018-01-02T08:44:44.305Z,6.79
2018-01-02T08:47:11.715Z,6.82
2018-01-02T08:49:39.116Z,6.82
2018-01-02T08:52:06.550Z,6.85
2018-01-02T08:54:33.953Z,6.82
2018-01-02T08:57:01.352Z,6.78
2018-01-02T08:59:28.760Z,6.79
2018-01-02T09:01:56.489Z,6.77
2018-01-02T09:04:23.902Z,6.85
2018-01-02T09:06:51.310Z,6.80
2018-01-02T09:09:18.733Z,6.87
2018-01-02T09:11:46.146Z,6.83
2018-01-02T09:14:13.545Z,6.85
2018-01-02T09:16:40.957Z,6.91
2018-01-02T09:19:08.353Z,6.95
2018-01-02T09:21:35.773Z,6.99
2018-01-02T09:24:03.180Z,6.97
2018-01-02T09:26:30.601Z,6.92
2018-01-02T09:28:58.036Z,6.93
2018-01-02T09:31:25.441Z,7.08
2018-01-02T09:33:52.849Z,7.08
2018-01-02T09:36:20.257Z,7.14
2018-01-02T09:38:47.668Z,7.16
2018-01-02T09:41:15.084Z,7.15
2018-01-02T09:43:42.507Z,7.15
2018-01-02T09:46:11.166Z,7.20
2018-01-02T09:48:45.369Z,7.24
2018-01-02T09:51:12.784Z,7.26
2018-01-02T09:53:40.189Z,7.28
2018-01-02T09:56:07.617Z,7.27
2018-01-02T09:58:35.021Z,7.24
2018-01-02T10:01:02.434Z,7.33
2018-01-02T10:03:29.844Z,7.35
2018-01-02T10:05:57.298Z,7.36
2018-01-02T10:08:24.714Z,7.38
2018-01-02T10:10:52.229Z,7.33
2018-01-02T10:13:19.647Z,7.43
2018-01-02T10:15:47.057Z,7.46
2018-01-02T10:18:14.487Z,7.46
2018-01-02T10:20:41.884Z,7.47
2018-01-02T10:23:09.301Z,7.43
2018-01-02T10:25:36.733Z,7.41
2018-01-02T10:28:04.150Z,7.44
2018-01-02T10:30:31.571Z,7.48
2018-01-02T10:32:58.972Z,7.37
2018-01-02T10:35:26.410Z,7.28
2018-01-02T10:37:54.646Z,7.35
2018-01-02T10:40:22.057Z,7.26
2018-01-02T10:42:49.468Z,7.42
2018-01-02T10:45:16.899Z,7.50
2018-01-02T10:47:44.313Z,7.58
2018-01-02T10:50:11.771Z,7.54
2018-01-02T10:52:39.144Z,7.53
2018-01-02T10:55:06.557Z,7.64
2018-01-02T10:57:33.974Z,7.73
2018-01-02T11:00:01.385Z,7.60
2018-01-02T11:02:28.808Z,7.71
2018-01-02T11:04:56.243Z,7.79
2018-01-02T11:07:23.666Z,7.73
2018-01-02T11:09:51.127Z,7.75
2018-01-02T11:12:18.536Z,7.73
2018-01-02T11:14:46.733Z,7.79
2018-01-02T11:17:14.148Z,7.68
2018-01-02T11:19:41.560Z,7.65
2018-01-02T11:22:08.969Z,7.69
2018-01-02T11:24:36.385Z,7.68
2018-01-02T11:27:03.793Z,7.78
2018-01-02T11:29:31.222Z,7.67
2018-01-02T11:31:58.628Z,7.70
2018-01-02T11:34:26.063Z,7.75
2018-01-02T11:36:53.464Z,7.80
2018-01-02T11:39:20.873Z,7.78
2018-01-02T11:41:48.286Z,7.91
2018-01-02T11:44:15.693Z,7.94
2018-01-02T11:46:43.109Z,7.93
2018-01-02T11:49:10.513Z,7.95
2018-01-02T11:51:37.933Z,8.02
2018-01-02T11:54:05.346Z,8.04
2018-01-02T11:56:32.761Z,7.98
2018-01-02T11:59:00.165Z,7.94
2018-01-02T12:01:27.572Z,7.82
2018-01-02T12:03:54.997Z,7.92
2018-01-02T12:06:22.401Z,7.88
2018-01-02T12:08:49.813Z,7.86
2018-01-02T12:11:17.228Z,7.72
2018-01-02T12:13:44.641Z,7.72
2018-01-02T12:16:12.049Z,7.82
2018-01-02T12:18:39.465Z,7.93
2018-01-02T12:21:06.873Z,8.01
2018-01-02T12:23:34.328Z,8.05
2018-01-02T12:26:01.762Z,7.96
2018-01-02T12:28:29.185Z,8.08
2018-01-02T12:30:56.609Z,8.18
2018-01-02T12:33:24.020Z,8.22
2018-01-02T12:35:51.445Z,8.32
2018-01-02T12:38:18.849Z,8.45
2018-01-02T12:40:46.264Z,8.48
2018-01-02T12:43:13.670Z,8.55
2018-01-02T12:45:41.086Z,8.63
2018-01-02T12:48:08.497Z,8.67
2018-01-02T12:50:35.920Z,8.62
2018-01-02T12:53:03.317Z,8.55
2018-01-02T12:55:30.732Z,8.46
2018-01-02T12:57:58.145Z,8.52
2018-01-02T13:00:25.625Z,8.63
2018-01-02T13:02:53.045Z,8.51
2018-01-02T13:05:20.458Z,8.61
2018-01-02T13:07:47.861Z,8.52
2018-01-02T13:10:15.278Z,8.47
2018-01-02T13:12:42.680Z,8.37
2018-01-02T13:15:10.098Z,8.29
2018-01-02T13:17:38.440Z,8.46
2018-01-02T13:20:05.844Z,8.51
2018-01-02T13:22:33.271Z,8.47
2018-01-02T13:25:00.700Z,8.45
2018-01-02T13:27:28.106Z,8.46
2018-01-02T13:29:55.532Z,8.46
2018-01-02T13:32:22.953Z,8.45
2018-01-02T13:34:50.369Z,8.49
2018-01-02T13:37:26.166Z,8.22
2018-01-02T13:39:53.577Z,8.20
2018-01-02T13:42:20.986Z,8.30
2018-01-02T13:44:48.392Z,8.28
2018-01-02T13:47:15.876Z,8.33
2018-01-02T13:49:43.273Z,8.27
2018-01-02T13:52:10.686Z,8.30
2018-01-02T13:54:38.098Z,8.30
2018-01-02T13:57:05.509Z,8.26
2018-01-02T13:59:32.916Z,8.30
2018-01-02T14:02:00.325Z,8.31
2018-01-02T14:04:27.765Z,8.30
2018-01-02T14:06:55.169Z,8.26
2018-01-02T14:09:22.632Z,8.28
2018-01-02T14:11:50.033Z,8.29
2018-01-02T14:14:17.436Z,8.26
2018-01-02T14:16:44.845Z,8.26
2018-01-02T14:19:12.248Z,8.25
2018-01-02T14:21:39.665Z,8.21
2018-01-02T14:24:07.069Z,8.23
2018-01-02T14:26:34.485Z,8.21
2018-01-02T14:29:01.896Z,8.23
2018-01-02T14:31:29.313Z,8.17
2018-01-02T14:33:56.717Z,8.21
2018-01-02T14:36:24.125Z,8.18
2018-01-02T14:38:51.558Z,8.15
2018-01-02T14:41:18.957Z,8.13
2018-01-02T14:43:46.364Z,8.12
2018-01-02T14:46:13.769Z,8.07
2018-01-02T14:48:41.186Z,8.07
2018-01-02T14:51:08.589Z,8.05
2018-01-02T14:53:36.005Z,8.03
2018-01-02T14:56:03.409Z,7.99
2018-01-02T14:58:30.827Z,8.00
2018-01-02T15:00:58.234Z,7.97
2018-01-02T15:03:25.654Z,7.93
2018-01-02T15:05:53.079Z,7.87
2018-01-02T15:08:20.490Z,7.84
2018-01-02T15:10:47.898Z,7.78
2018-01-02T15:13:15.321Z,7.71
2018-01-02T15:15:42.751Z,7.66
2018-01-02T15:18:10.164Z,7.60
2018-01-02T15:20:37.577Z,7.55
2018-01-02T15:23:05.007Z,7.47
2018-01-02T15:25:32.405Z,7.44
2018-01-02T15:27:59.832Z,7.38
2018-01-02T15:30:27.234Z,7.38
2018-01-02T15:32:54.641Z,7.38
2018-01-02T15:35:22.045Z,7.35
2018-01-02T15:37:49.470Z,7.40
2018-01-02T15:40:16.897Z,7.43
2018-01-02T15:42:44.349Z,7.42
2018-01-02T15:45:11.768Z,7.38
2018-01-02T15:47:39.179Z,7.41
2018-01-02T15:50:06.606Z,7.42
2018-01-02T15:52:34.014Z,7.45
2018-01-02T15:55:01.673Z,7.47
2018-01-02T15:57:29.092Z,7.47
2018-01-02T15:59:56.533Z,7.46
2018-01-02T16:02:23.942Z,7.50
2018-01-02T16:04:51.414Z,7.52
2018-01-02T16:07:18.840Z,7.54
2018-01-02T16:09:46.249Z,7.53
2018-01-02T16:12:13.650Z,7.50
2018-01-02T16:14:41.073Z,7.56
2018-01-02T16:17:08.481Z,7.55
2018-01-02T16:19:35.883Z,7.57
2018-01-02T16:22:03.317Z,7.60
2018-01-02T16:24:32.325Z,7.57
2018-01-02T16:26:59.773Z,7.59
2018-01-02T16:29:27.209Z,7.57
2018-01-02T16:31:54.613Z,7.56
2018-01-02T16:34:22.047Z,7.56
2018-01-02T16:36:49.456Z,7.54
2018-01-02T16:39:16.901Z,7.53
2018-01-02T16:41:44.306Z,7.52
2018-01-02T16:44:11.826Z,7.57
2018-01-02T16:46:39.228Z,7.55
2018-01-02T16:49:06.671Z,7.56
2018-01-02T16:51:34.081Z,7.57
2018-01-02T16:54:01.941Z,7.57
2018-01-02T16:56:29.377Z,7.56
2018-01-02T16:58:56.784Z,7.55
2018-01-02T17:01:24.234Z,7.56
2018-01-02T17:03:53.161Z,7.55
2018-01-02T17:06:20.564Z,7.56
2018-01-02T17:08:47.977Z,7.58
2018-01-02T17:11:23.213Z,7.55
2018-01-02T17:13:50.629Z,7.51
2018-01-02T17:16:18.061Z,7.49
2018-01-02T17:18:45.526Z,7.50
2018-01-02T17:21:12.921Z,7.50
2018-01-02T17:23:40.329Z,7.50
2018-01-02T17:26:07.789Z,7.47
2018-01-02T17:28:35.197Z,7.51
2018-01-02T17:31:02.645Z,7.49
2018-01-02T17:33:30.064Z,7.54
2018-01-02T17:35:57.485Z,7.56
2018-01-02T17:38:24.897Z,7.58
2018-01-02T17:40:52.317Z,7.53
2018-01-02T17:43:19.724Z,7.55
2018-01-02T17:45:47.138Z,7.58
2018-01-02T17:48:14.541Z,7.56
2018-01-02T17:50:41.944Z,7.56
2018-01-02T17:53:09.361Z,7.59
2018-01-02T17:55:36.780Z,7.56
2018-01-02T17:58:04.244Z,7.56
2018-01-02T18:00:31.615Z,7.57
2018-01-02T18:02:59.013Z,7.60
2018-01-02T18:05:26.467Z,7.61
2018-01-02T18:07:53.858Z,7.61
2018-01-02T18:10:21.282Z,7.63
2018-01-02T18:12:48.685Z,7.67
2018-01-02T18:15:16.089Z,7.68
2018-01-02T18:17:43.501Z,7.71
2018-01-02T18:20:10.906Z,7.71
2018-01-02T18:22:38.312Z,7.73
2018-01-02T18:25:05.716Z,7.78
2018-01-02T18:27:33.137Z,7.76
2018-01-02T18:30:00.541Z,7.76
2018-01-02T18:32:27.946Z,7.74
2018-01-02T18:34:55.358Z,7.76
2018-01-02T18:37:22.761Z,7.73
2018-01-02T18:39:50.173Z,7.69
2018-01-02T18:42:17.586Z,7.66
2018-01-02T18:44:45.010Z,7.57
2018-01-02T18:47:12.445Z,7.56
2018-01-02T18:49:39.846Z,7.51
2018-01-02T18:52:07.252Z,7.54
2018-01-02T18:54:34.676Z,7.51
2018-01-02T18:57:02.106Z,7.46
2018-01-02T18:59:29.518Z,7.44
2018-01-02T19:01:56.954Z,7.34
2018-01-02T19:04:24.371Z,7.29
2018-01-02T19:06:51.798Z,7.18
2018-01-02T19:09:19.232Z,7.23
2018-01-02T19:11:46.658Z,7.22
2018-01-02T19:14:14.069Z,7.23
2018-01-02T19:16:41.481Z,7.25
2018-01-02T19:19:08.899Z,7.24
2018-01-02T19:21:36.301Z,7.20
2018-01-02T19:24:03.709Z,7.22
2018-01-02T19:26:31.137Z,7.22
2018-01-02T19:28:58.540Z,7.18
2018-01-02T19:31:25.960Z,7.18
2018-01-02T19:33:53.354Z,7.14
2018-01-02T19:36:20.796Z,7.17
2018-01-02T19:38:48.204Z,7.04
2018-01-02T19:41:15.616Z,7.09
2018-01-02T19:43:43.432Z,7.10
2018-01-02T19:46:10.878Z,7.07
2018-01-02T19:48:38.307Z,7.05
2018-01-02T19:51:11.062Z,7.07
2018-01-02T19:53:38.515Z,7.08
2018-01-02T19:56:09.752Z,7.12
2018-01-02T19:58:37.181Z,7.12
2018-01-02T20:01:04.657Z,7.08
2018-01-02T20:03:32.105Z,7.14
2018-01-02T20:05:59.522Z,7.06
2018-01-02T20:08:26.950Z,7.01
2018-01-02T20:10:54.405Z,7.01
2018-01-02T20:13:21.872Z,6.98
2018-01-02T20:15:49.314Z,6.95
2018-01-02T20:18:22.218Z,6.91
2018-01-02T20:20:49.642Z,6.88
2018-01-02T20:23:17.075Z,6.88
2018-01-02T20:25:44.497Z,6.90
2018-01-02T20:28:11.930Z,6.86
2018-01-02T20:30:39.337Z,6.91
2018-01-02T20:33:06.744Z,6.89
2018-01-02T20:35:34.150Z,6.85
2018-01-02T20:38:01.562Z,6.90
2018-01-02T20:40:28.968Z,6.87
2018-01-02T20:42:59.829Z,6.95
2018-01-02T20:45:27.250Z,6.92
2018-01-02T20:47:54.649Z,6.94
2018-01-02T20:50:22.084Z,6.91
2018-01-02T20:52:49.502Z,6.99
2018-01-02T20:55:16.918Z,7.02
2018-01-02T20:57:44.361Z,7.03
2018-01-02T21:00:11.769Z,7.09
2018-01-02T21:02:39.184Z,7.03
2018-01-02T21:05:06.618Z,7.05
2018-01-02T21:07:34.038Z,7.07
2018-01-02T21:10:01.444Z,7.11
2018-01-02T21:12:28.884Z,7.16
2018-01-02T21:14:56.298Z,7.13
2018-01-02T21:17:23.704Z,7.13
2018-01-02T21:19:51.130Z,7.12
2018-01-02T21:22:18.530Z,7.15
2018-01-02T21:24:45.935Z,7.14
2018-01-02T21:27:13.340Z,7.21
2018-01-02T21:29:40.745Z,7.24
2018-01-02T21:32:08.162Z,7.22
2018-01-02T21:34:35.567Z,7.28
2018-01-02T21:37:02.987Z,7.26
2018-01-02T21:39:30.391Z,7.32
2018-01-02T21:41:57.796Z,7.33
2018-01-02T21:44:25.206Z,7.34
2018-01-02T21:46:52.615Z,7.35
2018-01-02T21:49:20.018Z,7.33
2018-01-02T21:51:47.421Z,7.40
2018-01-02T21:54:14.844Z,7.44
2018-01-02T21:56:42.254Z,7.45
2018-01-02T21:59:09.663Z,7.47
2018-01-02T22:01:37.071Z,7.50
2018-01-02T22:04:04.473Z,7.50
2018-01-02T22:06:31.897Z,7.51
2018-01-02T22:08:59.306Z,7.52
2018-01-02T22:11:26.733Z,7.51
2018-01-02T22:13:54.141Z,7.53
2018-01-02T22:16:21.553Z,7.54
2018-01-02T22:18:48.955Z,7.57
2018-01-02T22:21:16.368Z,7.58
2018-01-02T22:23:43.781Z,7.61
2018-01-02T22:26:11.185Z,7.60
2018-01-02T22:28:38.600Z,7.60
2018-01-02T22:31:06.005Z,7.58
2018-01-02T22:33:33.415Z,7.53
2018-01-02T22:36:00.820Z,7.60
2018-01-02T22:38:28.224Z,7.59
2018-01-02T22:40:55.632Z,7.67
2018-01-02T22:43:23.046Z,7.71
2018-01-02T22:45:50.464Z,7.74
2018-01-02T22:48:17.873Z,7.74
2018-01-02T22:50:45.280Z,7.75
2018-01-02T22:53:12.694Z,7.79
2018-01-02T22:55:40.178Z,7.81
2018-01-02T22:58:07.589Z,7.83
2018-01-02T23:00:34.995Z,7.85
2018-01-02T23:03:02.413Z,7.86
2018-01-02T23:05:29.820Z,7.81
2018-01-02T23:07:57.224Z,7.87
2018-01-02T23:10:24.667Z,7.92
2018-01-02T23:12:52.062Z,7.90
2018-01-02T23:15:19.469Z,7.91
2018-01-02T23:17:46.899Z,7.86
2018-01-02T23:20:14.321Z,7.92
2018-01-02T23:22:41.748Z,7.87
2018-01-02T23:25:09.145Z,7.88
2018-01-02T23:27:36.588Z,7.89
2018-01-02T23:30:03.996Z,7.95
2018-01-02T23:32:31.404Z,8.01
2018-01-02T23:34:58.853Z,7.99
2018-01-02T23:37:26.233Z,7.97
2018-01-02T23:39:53.641Z,8.02
2018-01-02T23:42:21.041Z,8.05
2018-01-02T23:44:48.456Z,8.03
2018-01-02T23:47:15.877Z,8.08
2018-01-02T23:49:43.297Z,8.03
2018-01-02T23:52:10.708Z,8.09
2018-01-02T23:54:38.151Z,8.03
2018-01-02T23:57:05.561Z,8.07
2018-01-02T23:59:32.981Z,8.09
